Time;durP1;ratioP1;P1;durP2;ratioP2;P2;SDS_P1;SDS_P2;PMS_P1;PMS_P2;Temp;Humidity;BMP_temperature;BMP_pressure;BME280_temperature;BME280_humidity;BME280_pressure;Samples;Min_cycle;Max_cycle;Signal;HPM_P1;HPM_P2
2022/03/24 00:02:13;;;;;;;39.75;19.48;;;;;;;5.09;66.08;102875.28;5040129;28;20484;-66
2022/03/24 00:04:38;;;;;;;44.03;20.13;;;;;;;5.06;66.98;102872.63;5044777;28;20046;-63
2022/03/24 00:07:04;;;;;;;39.65;20.00;;;;;;;5.03;66.61;102876.25;5048929;28;20035;-63
2022/03/24 00:09:30;;;;;;;43.65;19.55;;;;;;;5.00;67.08;102879.03;5047045;28;20025;-63
2022/03/24 00:11:55;;;;;;;41.70;19.23;;;;;;;4.98;67.33;102871.84;5036989;28;20049;-66
2022/03/24 00:14:22;;;;;;;39.72;21.00;;;;;;;4.95;67.25;102871.94;5037079;28;20048;-64
2022/03/24 00:16:48;;;;;;;43.42;20.83;;;;;;;4.92;67.24;102867.47;5029802;28;20037;-66
2022/03/24 00:19:16;;;;;;;38.72;19.23;;;;;;;4.89;67.76;102870.19;5032568;28;20041;-63
2022/03/24 00:21:43;;;;;;;36.85;19.08;;;;;;;4.88;67.60;102864.84;5034534;28;20484;-64
2022/03/24 00:24:08;;;;;;;42.53;21.00;;;;;;;4.84;67.46;102867.56;5036232;28;20479;-66
2022/03/24 00:26:34;;;;;;;42.67;20.77;;;;;;;4.81;67.28;102864.06;5044657;28;20036;-64
2022/03/24 00:29:02;;;;;;;41.67;19.98;;;;;;;4.80;68.60;102859.56;5048381;28;20033;-66
2022/03/24 00:31:27;;;;;;;40.95;19.42;;;;;;;4.75;68.38;102856.94;5032380;28;20080;-67
2022/03/24 00:33:53;;;;;;;40.42;19.90;;;;;;;4.73;68.15;102868.69;5043283;28;20028;-69
2022/03/24 00:36:20;;;;;;;36.60;18.65;;;;;;;4.69;69.40;102862.44;5039640;28;20052;-66
2022/03/24 00:38:46;;;;;;;32.70;16.75;;;;;;;4.66;68.85;102857.06;5048088;28;20044;-66
2022/03/24 00:41:12;;;;;;;38.25;19.20;;;;;;;4.66;68.23;102854.38;5038954;28;20523;-69
2022/03/24 00:43:39;;;;;;;39.95;20.52;;;;;;;4.65;67.74;102852.59;5033990;28;20029;-63
2022/03/24 00:46:05;;;;;;;35.85;19.52;;;;;;;4.64;66.89;102855.34;5031358;28;20037;-64
2022/03/24 00:48:31;;;;;;;41.08;20.35;;;;;;;4.61;66.48;102848.19;5026168;28;20037;-64
2022/03/24 00:50:56;;;;;;;42.13;19.17;;;;;;;4.57;66.95;102854.56;5041593;28;20048;-69
2022/03/24 00:53:23;;;;;;;39.53;19.00;;;;;;;4.55;66.96;102859.06;5048139;28;20509;-69
2022/03/24 00:55:49;;;;;;;37.88;19.88;;;;;;;4.48;68.49;102857.38;5046446;28;20039;-63
2022/03/24 00:58:15;;;;;;;41.80;18.77;;;;;;;4.41;68.02;102848.47;5044653;28;20045;-69
2022/03/24 01:00:42;;;;;;;35.72;17.77;;;;;;;4.39;68.21;102852.13;5045230;28;20043;-66
2022/03/24 01:03:08;;;;;;;39.63;19.02;;;;;;;4.38;68.58;102848.50;5046661;28;20098;-66
2022/03/24 01:05:37;;;;;;;41.00;19.83;;;;;;;4.38;67.51;102842.25;5034556;28;20523;-66
2022/03/24 01:08:05;;;;;;;39.50;19.23;;;;;;;4.34;67.54;102841.41;5046321;28;20074;-65
2022/03/24 01:10:31;;;;;;;44.13;19.77;;;;;;;4.33;67.98;102847.69;5047768;28;20061;-66
2022/03/24 01:12:59;;;;;;;38.30;18.27;;;;;;;4.30;68.18;102839.69;5047838;28;20103;-69
2022/03/24 01:15:26;;;;;;;38.40;19.55;;;;;;;4.27;68.49;102842.41;5045620;28;20041;-64
2022/03/24 01:17:53;;;;;;;37.53;18.65;;;;;;;4.23;68.48;102846.03;5039558;28;20070;-65
2022/03/24 01:20:19;;;;;;;38.28;18.83;;;;;;;4.20;68.24;102840.72;5044198;28;20037;-64
2022/03/24 01:22:45;;;;;;;40.63;20.33;;;;;;;4.15;67.98;102840.78;5034058;28;20468;-63
2022/03/24 01:25:10;;;;;;;50.15;18.90;;;;;;;4.13;67.80;102841.69;5040907;28;20136;-67
2022/03/24 01:27:38;;;;;;;42.47;19.50;;;;;;;4.10;68.50;102839.94;5029458;28;20405;-63
2022/03/24 01:30:08;;;;;;;45.08;20.13;;;;;;;4.04;69.14;102838.22;5046547;28;20071;-68
2022/03/24 01:32:35;;;;;;;44.42;21.92;;;;;;;3.98;69.02;102835.63;5036464;28;20128;-69
2022/03/24 01:35:01;;;;;;;41.20;20.25;;;;;;;3.95;68.78;102829.38;5038903;28;20039;-67
2022/03/24 01:37:27;;;;;;;41.65;19.38;;;;;;;3.94;69.21;102832.97;5047870;28;20089;-66
2022/03/24 01:39:52;;;;;;;43.42;19.38;;;;;;;3.91;69.71;102833.00;5046063;28;20143;-64
2022/03/24 01:42:18;;;;;;;36.42;18.55;;;;;;;3.81;71.37;102830.44;5044345;28;20064;-69
2022/03/24 01:44:46;;;;;;;36.67;19.13;;;;;;;3.76;72.00;102816.13;5024676;28;20531;-69
2022/03/24 01:47:12;;;;;;;40.95;20.30;;;;;;;3.73;70.00;102812.59;5025577;28;20064;-66
2022/03/24 01:49:40;;;;;;;41.53;18.90;;;;;;;3.75;69.98;102816.16;5042982;28;20068;-64
2022/03/24 01:52:08;;;;;;;36.80;19.67;;;;;;;3.74;70.63;102823.34;5042562;28;20041;-69
2022/03/24 01:54:38;;;;;;;38.88;19.25;;;;;;;3.72;70.62;102817.09;5025216;28;20049;-68
2022/03/24 01:57:05;;;;;;;36.30;17.33;;;;;;;3.71;70.68;102819.81;5037311;28;20565;-69
2022/03/24 01:59:31;;;;;;;35.50;17.52;;;;;;;3.68;70.26;102815.34;5043961;28;20491;-66
2022/03/24 02:01:57;;;;;;;46.33;21.48;;;;;;;3.67;70.36;102810.88;5043508;28;20036;-66
2022/03/24 02:04:23;;;;;;;36.33;18.33;;;;;;;3.64;71.02;102810.94;5044255;28;20561;-63
2022/03/24 02:06:49;;;;;;;38.58;18.83;;;;;;;3.60;70.78;102805.59;5025707;28;20062;-65
2022/03/24 02:09:15;;;;;;;36.92;17.77;;;;;;;3.57;71.32;102803.81;5023717;28;20037;-67
2022/03/24 02:11:41;;;;;;;35.05;17.83;;;;;;;3.52;71.40;102808.38;5045173;28;20059;-66
2022/03/24 02:14:07;;;;;;;37.13;16.08;;;;;;;3.49;70.76;102809.28;5042212;28;20131;-64
2022/03/24 02:16:38;;;;;;;40.50;17.15;;;;;;;3.47;70.61;102800.34;5041516;28;20037;-69
2022/03/24 02:19:24;;;;;;;46.75;21.15;;;;;;;3.46;69.73;102801.25;5044527;28;20033;-65
2022/03/24 02:21:54;;;;;;;45.83;21.42;;;;;;;3.42;69.92;102807.59;5049349;28;20041;-65
2022/03/24 02:24:22;;;;;;;43.38;19.15;;;;;;;3.39;72.09;102806.72;5027666;28;20060;-64
2022/03/24 02:26:48;;;;;;;41.08;19.33;;;;;;;3.21;73.37;102808.69;5033942;28;20033;-63
2022/03/24 02:29:15;;;;;;;38.13;19.17;;;;;;;3.12;71.92;102810.56;5036826;28;20442;-64
2022/03/24 02:31:45;;;;;;;39.50;18.92;;;;;;;3.15;71.76;102803.38;5037902;28;20488;-64
2022/03/24 02:37:00;;;;;;;39.22;18.85;;;;;;;3.14;71.51;102809.66;5045594;28;20032;-68
2022/03/24 02:39:26;;;;;;;37.70;17.70;;;;;;;3.13;71.44;102810.59;5032371;28;20033;-66
2022/03/24 02:41:56;;;;;;;34.85;18.70;;;;;;;3.13;71.51;102802.53;5026662;28;20595;-68
2022/03/24 02:44:27;;;;;;;41.97;21.45;;;;;;;3.13;71.58;102797.13;5045657;28;20555;-68
2022/03/24 02:46:56;;;;;;;41.33;20.33;;;;;;;3.11;72.35;102812.38;5037770;28;20075;-69
2022/03/24 02:49:23;;;;;;;42.03;19.80;;;;;;;3.07;71.35;102803.44;5044345;28;20091;-64
2022/03/24 02:51:50;;;;;;;42.60;21.75;;;;;;;3.08;72.11;102801.69;5038511;28;20579;-65
2022/03/24 02:54:16;;;;;;;39.38;18.67;;;;;;;3.03;73.07;102799.03;5040143;28;20033;-66
2022/03/24 02:56:42;;;;;;;53.40;21.40;;;;;;;2.91;72.86;102804.50;5046368;28;20040;-64
2022/03/24 02:59:08;;;;;;;40.40;18.73;;;;;;;2.76;73.06;102800.16;5045841;28;20025;-64
2022/03/24 03:01:34;;;;;;;37.88;19.50;;;;;;;2.76;72.11;102810.03;5036996;28;20591;-63
2022/03/24 03:04:00;;;;;;;40.33;17.77;;;;;;;2.77;72.58;102804.63;5041442;28;20045;-66
2022/03/24 03:06:26;;;;;;;39.67;19.45;;;;;;;2.75;72.71;102797.47;5036031;28;20028;-69
2022/03/24 03:08:51;;;;;;;46.70;23.13;;;;;;;2.75;73.27;102797.47;5038966;28;20073;-64
2022/03/24 03:11:20;;;;;;;48.33;21.67;;;;;;;2.68;73.49;102807.41;5047937;28;20073;-64
2022/03/24 03:13:46;;;;;;;43.05;20.63;;;;;;;2.65;72.84;102809.22;5043424;28;20041;-63
2022/03/24 03:16:12;;;;;;;44.78;19.85;;;;;;;2.66;72.76;102805.59;5045755;28;20454;-69
2022/03/24 03:18:39;;;;;;;43.55;21.05;;;;;;;2.64;73.42;102807.44;5049050;28;20048;-62
2022/03/24 03:21:05;;;;;;;37.85;18.13;;;;;;;2.58;72.92;102803.00;5036115;28;20045;-64
2022/03/24 03:23:30;;;;;;;47.10;20.33;;;;;;;2.60;72.00;102808.34;5045827;28;20468;-67
2022/03/24 03:25:56;;;;;;;41.53;19.02;;;;;;;2.63;72.54;102800.28;5044574;28;20108;-63
2022/03/24 03:28:22;;;;;;;40.20;18.35;;;;;;;2.62;72.93;102798.50;5048986;28;20036;-63
2022/03/24 03:30:47;;;;;;;42.30;20.60;;;;;;;2.60;73.61;102800.28;5039485;28;20526;-69
2022/03/24 03:33:13;;;;;;;36.92;18.42;;;;;;;2.51;74.30;102801.25;5028922;28;20515;-66
2022/03/24 03:35:39;;;;;;;38.72;19.10;;;;;;;2.40;74.98;102806.72;5037516;28;20068;-66
2022/03/24 03:38:04;;;;;;;40.53;18.48;;;;;;;2.38;74.28;102797.78;5047306;28;20079;-66
2022/03/24 03:40:30;;;;;;;41.40;18.73;;;;;;;2.38;75.10;102813.91;5039139;28;20043;-69
2022/03/24 03:42:56;;;;;;;36.92;17.95;;;;;;;2.29;75.21;102800.53;5049681;28;20035;-64
2022/03/24 03:45:21;;;;;;;42.70;20.60;;;;;;;2.32;74.62;102797.81;5049212;28;20040;-65
2022/03/24 03:47:47;;;;;;;43.90;20.27;;;;;;;2.34;75.53;102806.75;5040274;28;20045;-64
2022/03/24 03:50:12;;;;;;;47.03;20.80;;;;;;;2.25;74.35;102806.81;5043243;28;20550;-66
2022/03/24 03:52:38;;;;;;;43.58;20.00;;;;;;;2.23;74.06;102801.44;5039181;28;20041;-64
2022/03/24 03:55:04;;;;;;;37.88;17.98;;;;;;;2.25;73.53;102805.03;5047686;28;20037;-69
2022/03/24 03:57:30;;;;;;;43.05;20.35;;;;;;;2.26;74.18;102800.53;5035635;28;20046;-63
2022/03/24 03:59:55;;;;;;;37.28;17.58;;;;;;;2.23;75.01;102801.44;5044148;28;20021;-64
2022/03/24 04:02:21;;;;;;;42.65;19.88;;;;;;;2.07;74.60;102806.94;5034894;28;20048;-69
2022/03/24 04:04:46;;;;;;;42.88;19.98;;;;;;;1.89;75.24;102807.91;5044314;28;20439;-69
2022/03/24 04:07:12;;;;;;;38.10;17.67;;;;;;;1.88;74.65;102808.81;5041675;28;20033;-64
2022/03/24 04:09:38;;;;;;;44.50;20.17;;;;;;;1.91;75.30;102812.38;5042037;28;20037;-69
2022/03/24 04:12:04;;;;;;;46.72;20.40;;;;;;;1.95;74.37;102808.75;5048691;28;20404;-63
2022/03/24 04:14:30;;;;;;;38.85;19.40;;;;;;;1.97;74.03;102809.66;5038519;28;20480;-66
2022/03/24 04:16:57;;;;;;;42.53;19.85;;;;;;;1.96;74.66;102805.19;5036663;28;20096;-64
2022/03/24 04:19:24;;;;;;;41.92;19.52;;;;;;;1.94;74.97;102804.31;5043474;28;20033;-66
2022/03/24 04:21:49;;;;;;;47.08;21.23;;;;;;;1.93;74.19;102807.00;5036509;28;20413;-66
2022/03/24 04:24:14;;;;;;;43.63;19.85;;;;;;;1.96;73.68;102809.69;5043200;28;20037;-64
2022/03/24 04:26:40;;;;;;;40.63;19.58;;;;;;;1.95;73.63;102803.41;5040462;28;20115;-68
2022/03/24 04:29:05;;;;;;;43.20;19.75;;;;;;;1.97;73.77;102815.03;5048036;28;20119;-65
2022/03/24 04:31:30;;;;;;;37.92;18.90;;;;;;;1.94;74.19;102812.34;5039595;28;20041;-66
2022/03/24 04:33:56;;;;;;;44.97;20.08;;;;;;;1.92;74.86;102805.22;5047927;28;20040;-64
2022/03/24 04:36:21;;;;;;;40.20;19.42;;;;;;;1.92;74.31;102799.84;5033391;28;20037;-68
2022/03/24 04:38:46;;;;;;;46.90;20.67;;;;;;;1.95;73.91;102803.41;5042728;28;20048;-64
2022/03/24 04:41:12;;;;;;;43.15;19.92;;;;;;;1.90;74.33;102801.63;5042314;28;20403;-65
2022/03/24 04:43:37;;;;;;;38.25;18.70;;;;;;;1.88;74.06;102806.13;5048128;28;20373;-64
2022/03/24 04:46:04;;;;;;;41.97;19.33;;;;;;;1.87;74.24;102807.03;5043633;28;20477;-66
2022/03/24 04:48:35;;;;;;;51.20;19.67;;;;;;;1.88;74.25;102814.19;5045529;28;20476;-66
2022/03/24 04:51:05;;;;;;;39.33;18.63;;;;;;;1.85;74.09;102809.72;5045178;28;20041;-66
2022/03/24 04:53:30;;;;;;;39.78;17.33;;;;;;;1.84;74.23;102815.97;5042481;28;20033;-67
2022/03/24 04:55:56;;;;;;;41.30;18.55;;;;;;;1.81;75.23;102810.63;5032616;28;20040;-64
2022/03/24 04:58:21;;;;;;;36.70;19.55;;;;;;;1.83;74.48;102814.22;5039245;28;20039;-64
2022/03/24 05:00:46;;;;;;;37.17;18.00;;;;;;;1.82;74.06;102808.81;5042943;28;20061;-66
2022/03/24 05:03:12;;;;;;;41.75;19.48;;;;;;;1.80;75.14;102811.53;5036309;28;20096;-69
2022/03/24 05:05:37;;;;;;;42.33;18.90;;;;;;;1.76;74.67;102809.75;5037552;28;20043;-66
2022/03/24 05:08:04;;;;;;;37.47;17.65;;;;;;;1.75;74.66;102816.03;5047900;28;20450;-64
2022/03/24 05:10:29;;;;;;;44.83;18.08;;;;;;;1.73;74.60;102812.47;5041926;28;20136;-69
2022/03/24 05:12:55;;;;;;;44.90;18.67;;;;;;;1.73;74.36;102817.84;5047478;28;20028;-67
2022/03/24 05:15:20;;;;;;;38.95;18.65;;;;;;;1.69;74.79;102818.75;5047790;28;20031;-64
2022/03/24 05:17:46;;;;;;;42.50;18.90;;;;;;;1.67;75.55;102824.09;5031381;28;20037;-64
2022/03/24 05:20:11;;;;;;;38.65;18.67;;;;;;;1.65;75.44;102823.22;5040086;28;20045;-66
2022/03/24 05:22:37;;;;;;;41.60;19.77;;;;;;;1.65;75.14;102827.69;5042435;28;20116;-64
2022/03/24 05:25:05;;;;;;;40.60;19.92;;;;;;;1.63;75.74;102824.09;5037312;28;20084;-69
2022/03/24 05:27:31;;;;;;;45.88;19.00;;;;;;;1.61;74.76;102824.13;5047361;28;20029;-67
2022/03/24 05:29:56;;;;;;;42.45;20.42;;;;;;;1.62;74.97;102828.59;5034719;28;20032;-68
2022/03/24 05:32:22;;;;;;;40.72;18.88;;;;;;;1.62;74.73;102831.25;5042035;28;20051;-64
2022/03/24 05:34:48;;;;;;;44.85;19.38;;;;;;;1.63;74.51;102826.78;5043157;28;20037;-66
2022/03/24 05:37:14;;;;;;;37.05;18.73;;;;;;;1.63;74.48;102826.78;5034830;28;20044;-68
2022/03/24 05:39:41;;;;;;;45.63;20.95;;;;;;;1.63;75.55;102829.47;5034798;28;20055;-68
2022/03/24 05:42:07;;;;;;;44.25;19.23;;;;;;;1.62;75.40;102827.69;5037284;28;20041;-65
2022/03/24 05:44:32;;;;;;;39.50;18.95;;;;;;;1.61;74.73;102832.16;5025545;28;20485;-66
2022/03/24 05:46:58;;;;;;;38.40;19.02;;;;;;;1.62;75.20;102833.94;5027685;28;20353;-63
2022/03/24 05:49:24;;;;;;;41.78;19.27;;;;;;;1.65;75.00;102830.38;5031970;28;20025;-65
2022/03/24 05:52:21;;;;;;;40.17;18.70;;;;;;;1.67;75.07;102831.25;5031667;28;20031;-64
2022/03/24 05:54:47;;;;;;;47.65;20.88;;;;;;;1.69;75.22;102833.03;5034372;28;20044;-68
2022/03/24 05:57:12;;;;;;;46.25;22.13;;;;;;;1.73;74.52;102840.19;5036159;28;20029;-65
2022/03/24 05:59:38;;;;;;;45.17;20.55;;;;;;;1.76;75.26;102841.94;5033684;28;20567;-64
2022/03/24 06:02:04;;;;;;;39.08;17.98;;;;;;;1.78;74.76;102841.06;5032019;28;20037;-69
2022/03/24 06:04:30;;;;;;;36.47;17.13;;;;;;;1.81;75.52;102837.47;5033491;28;20118;-65
2022/03/24 06:06:58;;;;;;;38.67;18.83;;;;;;;1.84;75.29;102834.78;5042878;28;20072;-66
2022/03/24 06:09:23;;;;;;;39.10;19.00;;;;;;;1.87;74.69;102840.13;5032419;28;20033;-69
2022/03/24 06:11:49;;;;;;;42.38;20.92;;;;;;;1.92;75.24;102842.81;5026579;28;20047;-63
2022/03/24 06:14:15;;;;;;;47.53;21.40;;;;;;;1.96;74.63;102844.56;5026364;28;20489;-66
2022/03/24 06:16:41;;;;;;;43.85;20.23;;;;;;;2.00;74.42;102844.53;5025078;28;20140;-64
2022/03/24 06:19:07;;;;;;;48.13;22.65;;;;;;;2.06;74.35;102845.41;5025993;28;20128;-66
2022/03/24 06:21:33;;;;;;;54.05;20.67;;;;;;;2.15;74.37;102842.69;5026265;28;20022;-64
2022/03/24 06:23:58;;;;;;;46.38;23.33;;;;;;;2.39;73.59;102847.91;5026545;28;20392;-69
2022/03/24 06:26:23;;;;;;;56.05;24.17;;;;;;;2.75;73.24;102848.53;5029013;28;20037;-64
2022/03/24 06:28:50;;;;;;;47.47;22.15;;;;;;;2.96;71.78;102845.69;5036300;28;20487;-69
2022/03/24 06:31:15;;;;;;;52.45;22.75;;;;;;;3.01;72.04;102841.16;5034801;28;20128;-64
2022/03/24 06:33:41;;;;;;;50.80;22.00;;;;;;;3.06;71.90;102847.38;5028051;28;20120;-66
2022/03/24 06:36:08;;;;;;;46.97;20.63;;;;;;;3.25;71.70;102848.09;5033199;28;20034;-63
2022/03/24 06:38:34;;;;;;;49.85;21.95;;;;;;;3.32;70.92;102857.91;5028449;28;20558;-64
2022/03/24 06:41:00;;;;;;;48.25;21.77;;;;;;;3.33;71.35;102854.28;5034308;28;20052;-64
2022/03/24 06:43:25;;;;;;;46.92;20.67;;;;;;;3.44;71.07;102847.91;5027369;28;20037;-66
2022/03/24 06:45:51;;;;;;;43.08;20.25;;;;;;;3.60;71.00;102857.63;5032035;28;20021;-65
2022/03/24 06:48:17;;;;;;;46.30;20.20;;;;;;;3.97;70.16;102854.50;5035957;28;20033;-65
2022/03/24 06:50:42;;;;;;;82.90;20.27;;;;;;;4.48;69.26;102846.59;5033259;28;20188;-70
2022/03/24 06:53:08;;;;;;;72.18;23.67;;;;;;;5.02;69.84;102852.00;5030138;28;20093;-66
2022/03/24 06:55:34;;;;;;;74.72;23.08;;;;;;;5.43;66.63;102845.88;5030250;28;20029;-67
2022/03/24 06:57:59;;;;;;;78.18;22.65;;;;;;;5.71;66.11;102848.94;5038346;28;20043;-67
2022/03/24 07:00:25;;;;;;;75.57;22.05;;;;;;;6.23;64.65;102847.88;5044525;28;20040;-64
2022/03/24 07:02:50;;;;;;;59.92;20.45;;;;;;;6.80;62.31;102841.13;5035786;28;20036;-64
2022/03/24 07:05:15;;;;;;;53.53;21.13;;;;;;;6.85;62.32;102852.72;5042823;28;20447;-64
2022/03/24 07:07:42;;;;;;;47.83;22.13;;;;;;;7.56;60.51;102844.56;5047656;28;20036;-64
2022/03/24 07:10:08;;;;;;;52.08;24.42;;;;;;;8.18;58.74;102849.97;5043482;28;20060;-66
2022/03/24 07:12:34;;;;;;;46.15;21.77;;;;;;;8.50;57.78;102847.22;5049640;28;20455;-65
2022/03/24 07:15:00;;;;;;;44.78;23.05;;;;;;;8.65;58.69;102841.31;5048678;28;20047;-66
2022/03/24 07:17:26;;;;;;;46.85;23.38;;;;;;;9.00;58.70;102850.09;5039857;28;20123;-69
2022/03/24 07:19:51;;;;;;;46.92;23.00;;;;;;;9.43;57.65;102855.84;5045213;28;20120;-64
2022/03/24 07:22:16;;;;;;;53.72;24.52;;;;;;;10.19;56.06;102849.38;5040803;28;20045;-65
2022/03/24 07:24:42;;;;;;;59.08;23.42;;;;;;;11.02;55.17;102851.53;5039429;28;20395;-66
2022/03/24 07:27:07;;;;;;;48.60;24.10;;;;;;;11.36;54.54;102853.69;5046799;28;20083;-69
2022/03/24 07:29:33;;;;;;;54.63;25.00;;;;;;;11.67;54.23;102850.50;5045270;28;20040;-64
2022/03/24 07:32:01;;;;;;;56.78;27.02;;;;;;;12.15;53.36;102854.66;5046025;28;20056;-67
2022/03/24 07:34:27;;;;;;;54.72;26.05;;;;;;;12.05;53.28;102853.34;5049002;28;20044;-67
2022/03/24 07:36:53;;;;;;;51.28;26.15;;;;;;;12.18;52.93;102848.19;5047251;28;20435;-71
2022/03/24 07:39:18;;;;;;;53.20;28.02;;;;;;;12.72;50.30;102854.66;5039656;28;20052;-67
2022/03/24 07:41:44;;;;;;;55.88;27.55;;;;;;;12.91;50.39;102852.78;5046220;28;20506;-70
2022/03/24 07:44:09;;;;;;;60.60;30.05;;;;;;;13.08;50.66;102848.34;5042928;28;20037;-69
2022/03/24 07:46:35;;;;;;;52.28;28.73;;;;;;;13.26;51.35;102852.91;5041351;28;20076;-69
2022/03/24 07:49:00;;;;;;;57.42;29.17;;;;;;;13.66;49.95;102861.72;5047037;28;20024;-66
2022/03/24 07:51:31;;;;;;;54.03;29.15;;;;;;;13.82;49.41;102850.88;5036408;28;20048;-65
2022/03/24 07:54:00;;;;;;;58.13;30.10;;;;;;;13.78;48.29;102855.59;5042302;28;20069;-64
2022/03/24 07:56:26;;;;;;;52.15;28.05;;;;;;;13.79;49.14;102857.38;5033032;28;20058;-65
2022/03/24 07:58:57;;;;;;;50.05;27.70;;;;;;;13.88;49.69;102856.00;5035214;28;20084;-65
2022/03/24 08:01:30;;;;;;;48.03;27.40;;;;;;;13.96;48.82;102854.63;5033539;28;20030;-64
2022/03/24 08:04:00;;;;;;;50.40;29.60;;;;;;;13.98;48.01;102858.13;5032160;28;20030;-70
2022/03/24 08:06:27;;;;;;;53.83;27.70;;;;;;;13.99;46.66;102864.53;5039066;28;20036;-67
2022/03/24 08:08:53;;;;;;;49.45;26.63;;;;;;;14.07;46.20;102864.09;5042502;28;20037;-64
2022/03/24 08:11:18;;;;;;;42.95;26.27;;;;;;;14.16;45.40;102864.47;5042688;28;20060;-65
2022/03/24 08:13:47;;;;;;;48.00;27.10;;;;;;;14.33;44.11;102866.28;5032631;28;20524;-64
2022/03/24 08:16:13;;;;;;;55.35;29.58;;;;;;;14.46;44.68;102866.47;5037072;28;20041;-70
2022/03/24 08:18:39;;;;;;;52.65;28.52;;;;;;;14.54;44.93;102861.44;5030046;28;20099;-67
2022/03/24 08:21:04;;;;;;;46.40;27.13;;;;;;;14.60;43.97;102866.59;5041962;28;20041;-65
2022/03/24 08:23:29;;;;;;;49.63;25.77;;;;;;;14.74;43.16;102858.47;5042417;28;20427;-67
2022/03/24 08:25:55;;;;;;;52.60;25.90;;;;;;;15.01;43.79;102864.22;5034436;28;20053;-70
2022/03/24 08:28:20;;;;;;;49.35;25.58;;;;;;;15.17;42.38;102866.03;5040331;28;20016;-64
2022/03/24 08:30:46;;;;;;;47.67;26.50;;;;;;;15.23;41.84;102872.03;5028821;28;20095;-66
2022/03/24 08:33:12;;;;;;;49.47;27.52;;;;;;;15.35;41.83;102867.69;5027769;28;20544;-66
2022/03/24 08:35:39;;;;;;;48.05;26.35;;;;;;;15.40;42.02;102879.25;5027719;28;20042;-65
2022/03/24 08:38:05;;;;;;;50.58;28.02;;;;;;;15.39;40.27;102871.09;5043944;28;20028;-67
2022/03/24 08:40:30;;;;;;;45.17;27.42;;;;;;;15.35;40.27;102872.28;5032382;28;20116;-67
2022/03/24 08:42:55;;;;;;;48.42;27.52;;;;;;;15.27;39.40;102872.72;5036464;28;20044;-65
2022/03/24 08:45:21;;;;;;;45.60;28.00;;;;;;;15.15;40.28;102873.44;5027153;28;20037;-67
2022/03/24 08:47:47;;;;;;;46.55;27.45;;;;;;;15.13;39.51;102873.56;5026177;28;20037;-67
2022/03/24 08:50:13;;;;;;;50.92;28.23;;;;;;;15.22;38.82;102875.75;5039116;28;20116;-65
2022/03/24 08:52:40;;;;;;;50.92;25.92;;;;;;;15.17;37.00;102868.78;5044648;28;20024;-70
2022/03/24 08:55:07;;;;;;;47.67;26.95;;;;;;;15.14;38.55;102872.56;5032420;28;20476;-67
2022/03/24 08:57:34;;;;;;;44.13;25.23;;;;;;;14.94;35.85;102876.50;5036644;28;20040;-68
2022/03/24 09:00:03;;;;;;;45.28;24.88;;;;;;;14.75;36.43;102868.47;5033182;28;20037;-70
2022/03/24 09:02:30;;;;;;;42.03;25.80;;;;;;;14.64;37.64;102872.75;5032076;28;20253;-70
2022/03/24 09:04:56;;;;;;;45.75;28.02;;;;;;;14.74;38.41;102877.66;5040989;28;20476;-70
2022/03/24 09:07:22;;;;;;;44.92;26.85;;;;;;;14.92;37.73;102878.44;5032839;28;20083;-70
2022/03/24 09:09:47;;;;;;;44.92;26.52;;;;;;;15.07;39.15;102884.88;5035894;28;20082;-66
2022/03/24 09:12:13;;;;;;;46.50;27.23;;;;;;;15.30;39.23;102880.78;5030834;28;20041;-65
2022/03/24 09:14:40;;;;;;;46.47;26.75;;;;;;;15.46;38.31;102887.09;5027614;28;20120;-70
2022/03/24 09:17:06;;;;;;;44.83;25.58;;;;;;;15.46;37.66;102886.22;5027067;28;20032;-70
2022/03/24 09:19:35;;;;;;;41.30;25.20;;;;;;;15.35;36.21;102883.25;5026662;28;20120;-67
2022/03/24 09:22:04;;;;;;;41.05;23.33;;;;;;;15.38;38.29;102885.78;5027736;28;20064;-66
2022/03/24 09:24:29;;;;;;;39.03;24.85;;;;;;;15.58;36.92;102882.75;5037513;28;20037;-68
2022/03/24 09:26:54;;;;;;;42.08;24.27;;;;;;;15.52;34.98;102886.72;5043995;28;20048;-64
2022/03/24 09:29:21;;;;;;;42.47;24.05;;;;;;;15.45;35.85;102890.81;5046261;28;20035;-67
2022/03/24 09:31:47;;;;;;;43.25;24.80;;;;;;;15.50;36.33;102890.53;5027904;28;20041;-66
2022/03/24 09:34:13;;;;;;;45.10;24.52;;;;;;;15.54;37.87;102887.53;5026767;28;20926;-70
2022/03/24 09:36:39;;;;;;;42.33;24.65;;;;;;;15.63;35.79;102888.81;5029315;28;20028;-69
2022/03/24 09:39:05;;;;;;;43.45;23.10;;;;;;;15.84;35.71;102888.50;5030087;28;20048;-65
2022/03/24 09:41:31;;;;;;;32.55;20.88;;;;;;;16.00;31.72;102884.72;5027213;28;20481;-69
2022/03/24 09:43:57;;;;;;;36.42;21.17;;;;;;;15.99;30.61;102893.94;5027539;28;20033;-68
2022/03/24 09:46:23;;;;;;;33.20;20.10;;;;;;;16.15;34.94;102881.97;5025343;28;20025;-64
2022/03/24 09:48:48;;;;;;;34.88;20.33;;;;;;;16.28;31.16;102885.72;5025727;28;20044;-64
2022/03/24 09:51:15;;;;;;;31.00;19.45;;;;;;;16.24;29.62;102884.16;5026646;28;20033;-71
2022/03/24 09:53:41;;;;;;;33.90;20.92;;;;;;;16.34;34.37;102888.06;5026060;28;20530;-65
2022/03/24 09:56:07;;;;;;;33.97;21.30;;;;;;;16.55;33.24;102889.44;5027897;28;20041;-70
2022/03/24 09:58:32;;;;;;;31.98;19.17;;;;;;;16.70;28.92;102883.91;5031335;28;20067;-65
2022/03/24 10:01:00;;;;;;;32.20;20.23;;;;;;;16.83;30.93;102887.63;5028992;28;20021;-70
2022/03/24 10:03:26;;;;;;;41.55;22.00;;;;;;;16.87;30.10;102889.19;5026162;28;20061;-70
2022/03/24 10:05:58;;;;;;;32.80;19.58;;;;;;;16.85;30.60;102885.66;5025571;28;20064;-65
2022/03/24 10:08:25;;;;;;;32.33;20.38;;;;;;;16.88;32.11;102888.22;5041895;28;20095;-71
2022/03/24 10:10:56;;;;;;;35.03;21.63;;;;;;;16.86;30.24;102886.56;5030450;28;20696;-66
2022/03/24 10:13:51;;;;;;;31.60;21.42;;;;;;;17.13;32.76;102890.19;5046527;28;20618;-64
2022/03/24 10:16:41;;;;;;;31.50;20.88;;;;;;;17.40;31.21;102876.44;5041669;28;20095;-70
2022/03/24 10:19:12;;;;;;;30.20;18.67;;;;;;;17.97;32.20;102875.25;5045019;28;20458;-70
2022/03/24 10:21:41;;;;;;;32.27;20.17;;;;;;;17.92;26.65;102870.06;5035358;28;20116;-64
2022/03/24 10:24:12;;;;;;;32.35;21.65;;;;;;;17.83;25.33;102866.09;5041752;28;20159;-70
2022/03/24 10:27:02;;;;;;;28.47;19.63;;;;;;;17.82;27.81;102871.72;5043029;28;20111;-64
2022/03/24 10:29:30;;;;;;;32.17;19.20;;;;;;;17.89;27.24;102867.50;5032705;28;20307;-70
2022/03/24 10:31:59;;;;;;;37.58;20.67;;;;;;;18.04;26.02;102866.41;5031776;28;20440;-63
2022/03/24 10:34:33;;;;;;;38.60;23.25;;;;;;;18.22;28.14;102869.72;5026013;28;20468;-68
2022/03/24 10:37:05;;;;;;;29.63;19.13;;;;;;;18.32;25.08;102872.66;5027890;28;20439;-63
2022/03/24 10:39:31;;;;;;;30.48;19.50;;;;;;;18.13;23.93;102867.63;5028696;28;20041;-67
2022/03/24 10:42:12;;;;;;;30.23;19.45;;;;;;;18.66;27.68;102860.06;5033253;28;20031;-70
2022/03/24 10:45:14;;;;;;;29.67;18.75;;;;;;;18.59;28.07;102858.75;5046350;28;20071;-68
2022/03/24 10:47:51;;;;;;;33.00;20.90;;;;;;;18.21;26.72;102865.19;5025373;28;20033;-70
2022/03/24 10:50:28;;;;;;;30.20;19.83;;;;;;;18.70;28.21;102858.88;5033603;28;20408;-70
2022/03/24 10:52:58;;;;;;;32.80;18.75;;;;;;;18.55;25.91;102865.47;5025665;28;20048;-63
2022/03/24 10:55:31;;;;;;;26.30;17.40;;;;;;;18.22;27.03;102864.19;5035018;28;20120;-67
2022/03/24 10:57:58;;;;;;;26.17;17.40;;;;;;;18.06;23.74;102853.41;5044912;28;20041;-65
2022/03/24 11:00:24;;;;;;;28.00;17.23;;;;;;;18.43;27.99;102856.25;5026439;28;20028;-70
2022/03/24 11:02:49;;;;;;;24.95;17.23;;;;;;;18.89;27.13;102857.50;5024961;28;20033;-70
2022/03/24 11:05:15;;;;;;;25.55;15.35;;;;;;;18.86;24.07;102864.09;5025015;28;20044;-69
2022/03/24 11:07:40;;;;;;;28.88;17.70;;;;;;;18.75;25.06;102861.28;5036259;28;20091;-65
2022/03/24 11:10:14;;;;;;;26.70;17.52;;;;;;;18.50;24.60;102867.69;5032255;28;20037;-71
2022/03/24 11:12:42;;;;;;;31.52;17.92;;;;;;;18.24;23.16;102855.84;5043752;28;20128;-68
2022/03/24 11:15:08;;;;;;;29.58;16.88;;;;;;;18.34;24.82;102854.16;5041274;28;20045;-71
2022/03/24 11:17:35;;;;;;;27.48;15.93;;;;;;;18.52;26.30;102858.31;5030334;28;20236;-70